Time,TemperatureF,DewpointF,PressureIn,WindDirection,WindDirectionDegrees,WindSpeedMPH,WindSpeedGustMPH,Humidity,HourlyPrecipIn,Conditions,Clouds,dailyrainin,SoftwareType,DateUTC
2013-01-12 00:00:00,53.5,47.2,24.22,SSW,209,5.0,12.0,79,0.00,,SKC,0.48,VWS V14.01,2013-01-12 05:00:00,
2013-01-12 00:03:00,53.5,47.2,24.24,SW,235,1.0,4.0,79,0.00,,SKC,0.00,VWS V14.01,2013-01-12 05:03:00,
2013-01-12 00:08:00,53.6,47.3,24.22,SSW,206,12.0,12.0,79,0.00,,SKC,0.00,VWS V14.01,2013-01-12 05:08:00,
2013-01-12 00:13:00,53.7,47.3,24.24,SSW,207,4.0,4.0,79,0.00,,SKC,0.00,VWS V14.01,2013-01-12 05:13:00,
2013-01-12 00:18:00,53.7,47.3,24.23,South,180,7.0,14.0,79,0.00,,SKC,0.00,VWS V14.01,2013-01-12 05:18:00,
2013-01-12 00:23:00,53.8,47.5,24.22,SSW,207,5.0,9.0,79,0.00,,SKC,0.00,VWS V14.01,2013-01-12 05:23:00,
2013-01-12 00:28:00,53.8,47.5,24.25,SSW,202,2.0,2.0,79,0.00,,SKC,0.00,VWS V14.01,2013-01-12 05:28:00,
2013-01-12 00:33:00,53.6,47.3,24.21,SSW,194,6.0,6.0,79,0.00,,SKC,0.00,VWS V14.01,2013-01-12 05:33:00,
2013-01-12 00:38:00,53.6,47.3,24.25,SSW,200,8.0,8.0,79,0.00,,SKC,0.00,VWS V14.01,2013-01-12 05:38:00,
2013-01-12 00:43:00,53.5,47.2,24.25,SSW,200,4.0,4.0,79,0.00,,SKC,0.00,VWS V14.01,2013-01-12 05:43:00,
2013-01-12 00:48:00,53.4,47.1,24.21,SSE,155,2.0,4.0,79,0.00,,SKC,0.00,VWS V14.01,2013-01-12 05:48:00,
2013-01-12 00:53:00,53.3,47.0,24.24,SSW,197,7.0,7.0,79,0.00,,SKC,0.00,VWS V14.01,2013-01-12 05:53:00,
2013-01-12 00:58:00,53.2,47.2,24.29,SSW,204,6.0,12.0,80,0.00,,SKC,0.00,VWS V14.01,2013-01-12 05:58:00,
2013-01-12 01:03:00,53.2,47.2,24.25,SW,215,7.0,7.0,80,0.00,,SKC,0.00,VWS V14.01,2013-01-12 06:03:00,
2013-01-12 01:08:00,53.1,46.8,24.27,SSW,204,2.0,2.0,79,0.00,,SKC,0.00,VWS V14.01,2013-01-12 06:08:00,
2013-01-12 01:13:00,53.0,47.0,24.27,SW,227,4.0,9.0,80,0.00,,SKC,0.00,VWS V14.01,2013-01-12 06:13:00,
2013-01-12 01:18:00,53.0,47.0,24.23,SSW,200,9.0,9.0,80,0.00,,SKC,0.00,VWS V14.01,2013-01-12 06:18:00,
2013-01-12 01:23:00,53.1,46.8,24.26,SSW,211,9.0,10.0,79,0.00,,SKC,0.00,VWS V14.01,2013-01-12 06:23:00,
2013-01-12 01:28:00,53.1,46.8,24.27,SW,218,3.0,5.0,79,0.00,,SKC,0.00,VWS V14.01,2013-01-12 06:28:00,
2013-01-12 01:33:00,52.8,46.8,24.22,SSW,201,5.0,5.0,80,0.00,,SKC,0.00,VWS V14.01,2013-01-12 06:33:00,
2013-01-12 01:38:00,52.7,46.7,24.22,SSW,206,4.0,10.0,80,0.00,,SKC,0.00,VWS V14.01,2013-01-12 06:38:00,
2013-01-12 01:43:00,52.6,46.6,24.23,SSW,194,1.0,5.0,80,0.00,,SKC,0.00,VWS V14.01,2013-01-12 06:43:00,
2013-01-12 01:48:00,52.5,46.8,24.23,SSW,202,4.0,6.0,81,0.00,,SKC,0.00,VWS V14.01,2013-01-12 06:48:00,
2013-01-12 01:53:00,52.5,46.8,24.25,South,180,3.0,7.0,81,0.00,,SKC,0.00,VWS V14.01,2013-01-12 06:53:00,
2013-01-12 01:58:00,52.4,46.8,24.23,SSW,195,4.0,7.0,81,0.00,,SKC,0.00,VWS V14.01,2013-01-12 06:58:00,
2013-01-12 02:03:00,52.4,46.8,24.22,South,191,5.0,6.0,81,0.00,,SKC,0.00,VWS V14.01,2013-01-12 07:03:00,
2013-01-12 02:08:00,52.4,46.8,24.22,SSW,202,2.0,5.0,81,0.00,,SKC,0.00,VWS V14.01,2013-01-12 07:08:00,
2013-01-12 02:13:00,52.6,46.9,24.19,South,191,3.0,4.0,81,0.00,,SKC,0.00,VWS V14.01,2013-01-12 07:13:00,
2013-01-12 02:18:00,52.5,46.8,24.24,South,176,4.0,4.0,81,0.00,,SKC,0.00,VWS V14.01,2013-01-12 07:18:00,
2013-01-12 02:23:00,52.6,46.9,24.25,SSW,194,4.0,6.0,81,0.00,,SKC,0.00,VWS V14.01,2013-01-12 07:23:00,
2013-01-12 02:28:00,52.6,46.9,24.24,SSW,200,1.0,6.0,81,0.00,,SKC,0.00,VWS V14.01,2013-01-12 07:28:00,
2013-01-12 02:33:00,52.6,46.9,24.23,South,189,4.0,9.0,81,0.00,,SKC,0.00,VWS V14.01,2013-01-12 07:33:00,
2013-01-12 02:38:00,52.8,47.1,24.33,SSW,210,11.0,11.0,81,0.00,,SKC,0.00,VWS V14.01,2013-01-12 07:38:00,
2013-01-12 02:43:00,52.9,47.2,24.33,SSW,212,5.0,7.0,81,0.00,,SKC,0.00,VWS V14.01,2013-01-12 07:43:00,
2013-01-12 02:48:00,52.8,47.1,24.22,SW,229,1.0,3.0,81,0.00,,SKC,0.00,VWS V14.01,2013-01-12 07:48:00,
2013-01-12 02:53:00,52.7,47.0,24.22,SSW,208,0.0,5.0,81,0.00,,SKC,0.00,VWS V14.01,2013-01-12 07:53:00,
2013-01-12 02:58:00,52.6,47.3,24.25,SSW,202,9.0,12.0,82,0.00,,SKC,0.00,VWS V14.01,2013-01-12 07:58:00,
2013-01-12 03:03:00,52.6,47.3,24.21,SSW,198,4.0,8.0,82,0.00,,SKC,0.00,VWS V14.01,2013-01-12 08:03:00,
2013-01-12 03:08:00,52.5,47.2,24.22,SW,216,5.0,6.0,82,0.00,,SKC,0.00,VWS V14.01,2013-01-12 08:08:00,
2013-01-12 03:13:00,52.5,47.2,24.18,SSW,211,6.0,6.0,82,0.00,,SKC,0.00,VWS V14.01,2013-01-12 08:13:00,
2013-01-12 03:18:00,52.4,47.1,24.21,WSW,243,7.0,7.0,82,0.00,,SKC,0.00,VWS V14.01,2013-01-12 08:18:00,
2013-01-12 03:23:00,52.4,47.1,24.21,SW,221,5.0,8.0,82,0.00,,SKC,0.00,VWS V14.01,2013-01-12 08:23:00,
2013-01-12 03:28:00,52.3,47.0,24.23,WSW,253,6.0,6.0,82,0.00,,SKC,0.00,VWS V14.01,2013-01-12 08:28:00,
2013-01-12 03:33:00,52.3,47.3,24.21,SW,231,2.0,3.0,83,0.00,,SKC,0.00,VWS V14.01,2013-01-12 08:33:00,
2013-01-12 03:38:00,52.3,47.3,24.22,SSW,198,2.0,3.0,83,0.00,,SKC,0.00,VWS V14.01,2013-01-12 08:38:00,
2013-01-12 03:43:00,52.3,47.6,24.22,SW,224,5.0,10.0,84,0.00,,SKC,0.00,VWS V14.01,2013-01-12 08:43:00,
2013-01-12 03:48:00,52.4,47.7,24.22,SSW,211,2.0,11.0,84,0.00,,SKC,0.00,VWS V14.01,2013-01-12 08:48:00,
2013-01-12 03:53:00,52.4,47.7,24.23,SSW,213,3.0,6.0,84,0.00,,SKC,0.00,VWS V14.01,2013-01-12 08:53:00,
2013-01-12 03:58:00,52.3,47.6,24.24,South,186,6.0,7.0,84,0.00,,SKC,0.00,VWS V14.01,2013-01-12 08:58:00,
2013-01-12 04:03:00,52.2,47.8,24.22,SSW,203,3.0,3.0,85,0.00,,SKC,0.00,VWS V14.01,2013-01-12 09:03:00,
2013-01-12 04:08:00,52.3,47.9,24.24,South,187,3.0,6.0,85,0.00,,SKC,0.00,VWS V14.01,2013-01-12 09:08:00,
2013-01-12 04:13:00,52.3,47.9,24.23,SSW,213,4.0,10.0,85,0.00,,SKC,0.00,VWS V14.01,2013-01-12 09:13:00,
2013-01-12 04:18:00,52.2,47.8,24.25,SW,223,4.0,4.0,85,0.00,,SKC,0.00,VWS V14.01,2013-01-12 09:18:00,
2013-01-12 04:23:00,52.2,48.2,24.22,SSW,208,4.0,4.0,86,0.00,,SKC,0.00,VWS V14.01,2013-01-12 09:23:00,
2013-01-12 04:28:00,52.1,48.0,24.22,SSW,203,8.0,8.0,86,0.00,,SKC,0.00,VWS V14.01,2013-01-12 09:28:00,
2013-01-12 04:33:00,52.0,48.0,24.22,SSW,196,2.0,8.0,86,0.00,,SKC,0.00,VWS V14.01,2013-01-12 09:33:00,
2013-01-12 04:38:00,52.0,48.3,24.23,SSW,199,4.0,4.0,87,0.00,,SKC,0.00,VWS V14.01,2013-01-12 09:38:00,
2013-01-12 04:43:00,52.0,48.3,24.22,SSW,198,4.0,5.0,87,0.00,,SKC,0.00,VWS V14.01,2013-01-12 09:43:00,
2013-01-12 04:48:00,51.8,48.1,24.25,SSW,202,5.0,5.0,87,0.00,,SKC,0.00,VWS V14.01,2013-01-12 09:48:00,
2013-01-12 04:53:00,51.7,48.0,24.21,SSW,211,10.0,10.0,87,0.00,,SKC,0.00,VWS V14.01,2013-01-12 09:53:00,
2013-01-12 04:58:00,51.8,48.4,24.21,South,187,2.0,5.0,88,0.00,,SKC,0.00,VWS V14.01,2013-01-12 09:58:00,
2013-01-12 05:03:00,51.8,48.4,24.25,SW,229,5.0,5.0,88,0.00,,SKC,0.00,VWS V14.01,2013-01-12 10:03:00,
2013-01-12 05:08:00,51.8,48.4,24.23,SSW,202,1.0,3.0,88,0.00,,SKC,0.00,VWS V14.01,2013-01-12 10:08:00,
2013-01-12 05:13:00,51.8,48.7,24.23,SSW,194,4.0,4.0,89,0.00,,SKC,0.00,VWS V14.01,2013-01-12 10:13:00,
2013-01-12 05:18:00,52.0,48.9,24.24,South,180,5.0,9.0,89,0.00,,SKC,0.00,VWS V14.01,2013-01-12 10:18:00,
2013-01-12 05:23:00,52.0,48.9,24.24,South,188,2.0,6.0,89,0.00,,SKC,0.00,VWS V14.01,2013-01-12 10:23:00,
2013-01-12 05:28:00,52.1,49.3,24.24,SSW,200,1.0,3.0,90,0.00,,SKC,0.00,VWS V14.01,2013-01-12 10:28:00,
2013-01-12 05:33:00,52.1,49.3,24.23,WSW,239,5.0,5.0,90,0.00,,SKC,0.00,VWS V14.01,2013-01-12 10:33:00,
2013-01-12 05:38:00,52.1,49.3,24.24,South,191,5.0,9.0,90,0.00,,SKC,0.00,VWS V14.01,2013-01-12 10:38:00,
2013-01-12 05:43:00,52.2,49.4,24.24,SSW,194,5.0,6.0,90,0.00,,SKC,0.00,VWS V14.01,2013-01-12 10:43:00,
2013-01-12 05:48:00,52.3,49.5,24.23,South,181,3.0,6.0,90,0.00,,SKC,0.00,VWS V14.01,2013-01-12 10:48:00,
2013-01-12 05:53:00,52.3,49.5,24.24,SSW,201,1.0,3.0,90,0.00,,SKC,0.00,VWS V14.01,2013-01-12 10:53:00,
2013-01-12 05:58:00,52.3,49.5,24.22,SSE,165,6.0,7.0,90,0.00,,SKC,0.00,VWS V14.01,2013-01-12 10:58:00,
2013-01-12 06:03:00,52.4,49.6,24.24,SSW,198,2.0,2.0,90,0.00,,SKC,0.00,VWS V14.01,2013-01-12 11:03:00,
2013-01-12 06:07:00,52.5,50.0,24.24,SSW,200,7.0,7.0,91,0.00,,SKC,0.00,VWS V14.01,2013-01-12 11:07:00,
2013-01-12 06:12:00,52.5,49.7,24.23,SSW,200,2.0,4.0,90,0.00,,SKC,0.00,VWS V14.01,2013-01-12 11:12:00,
2013-01-12 06:17:00,52.6,50.0,24.23,South,190,5.0,5.0,91,0.00,,SKC,0.00,VWS V14.01,2013-01-12 11:17:00,
2013-01-12 06:22:00,52.6,50.0,24.24,South,186,6.0,6.0,91,0.00,,SKC,0.00,VWS V14.01,2013-01-12 11:22:00,
2013-01-12 06:28:00,52.7,50.2,24.23,South,190,3.0,4.0,91,0.00,,SKC,0.00,VWS V14.01,2013-01-12 11:28:00,
2013-01-12 06:33:00,52.7,50.2,24.24,NNW,331,2.0,3.0,91,0.00,,SKC,0.00,VWS V14.01,2013-01-12 11:33:00,
2013-01-12 06:38:00,52.8,50.2,24.24,SW,217,3.0,3.0,91,0.00,,SKC,0.00,VWS V14.01,2013-01-12 11:38:00,
2013-01-12 06:43:00,52.7,50.2,24.24,SSW,202,5.0,6.0,91,0.00,,SKC,0.00,VWS V14.01,2013-01-12 11:43:00,
2013-01-12 06:47:00,52.8,50.2,24.19,South,191,3.0,3.0,91,0.00,,SKC,0.00,VWS V14.01,2013-01-12 11:47:00,
2013-01-12 06:52:00,52.8,50.2,24.22,South,183,4.0,4.0,91,0.00,,SKC,0.00,VWS V14.01,2013-01-12 11:52:00,
2013-01-12 06:57:00,52.7,50.2,24.25,SW,221,3.0,5.0,91,0.00,,SKC,0.00,VWS V14.01,2013-01-12 11:57:00,
2013-01-12 07:02:00,52.6,50.0,24.24,South,182,2.0,4.0,91,0.00,,SKC,0.00,VWS V14.01,2013-01-12 12:02:00,
2013-01-12 07:07:00,52.5,50.0,24.22,WSW,250,2.0,2.0,91,0.00,,SKC,0.00,VWS V14.01,2013-01-12 12:07:00,
2013-01-12 07:12:00,52.4,50.2,24.24,SSW,210,4.0,4.0,92,0.00,,SKC,0.00,VWS V14.01,2013-01-12 12:12:00,
2013-01-12 07:17:00,52.4,49.8,24.25,SSW,197,3.0,4.0,91,0.00,,SKC,0.00,VWS V14.01,2013-01-12 12:17:00,
2013-01-12 07:22:00,52.3,50.0,24.23,SSW,202,1.0,2.0,92,0.00,,SKC,0.00,VWS V14.01,2013-01-12 12:22:00,
2013-01-12 07:28:00,52.2,50.0,24.23,SSW,194,2.0,2.0,92,0.00,,SKC,0.00,VWS V14.01,2013-01-12 12:28:00,
2013-01-12 07:33:00,52.1,49.8,24.22,SSW,213,4.0,4.0,92,0.00,,SKC,0.00,VWS V14.01,2013-01-12 12:33:00,
2013-01-12 07:37:00,52.1,49.8,24.22,SW,227,1.0,2.0,92,0.00,,SKC,0.00,VWS V14.01,2013-01-12 12:37:00,
2013-01-12 07:42:00,52.1,49.8,24.16,SW,217,2.0,3.0,92,0.00,,SKC,0.00,VWS V14.01,2013-01-12 12:42:00,
2013-01-12 07:47:00,52.0,49.8,24.16,SSW,202,1.0,1.0,92,0.00,,SKC,0.00,VWS V14.01,2013-01-12 12:47:00,
2013-01-12 07:52:00,51.9,49.7,24.23,SSE,161,3.0,3.0,92,0.00,,SKC,0.00,VWS V14.01,2013-01-12 12:52:00,
2013-01-12 07:57:00,51.8,49.5,24.22,South,182,2.0,4.0,92,0.00,,SKC,0.00,VWS V14.01,2013-01-12 12:57:00,
2013-01-12 08:02:00,51.7,49.5,24.23,SSW,200,2.0,2.0,92,0.00,,SKC,0.00,VWS V14.01,2013-01-12 13:02:00,
2013-01-12 08:07:00,51.6,49.4,24.23,SSW,198,5.0,5.0,92,0.00,,SKC,0.00,VWS V14.01,2013-01-12 13:07:00,
2013-01-12 08:12:00,51.6,49.4,24.21,South,187,4.0,4.0,92,0.00,,SKC,0.00,VWS V14.01,2013-01-12 13:12:00,
2013-01-12 08:17:00,51.6,49.7,24.24,SSW,192,3.0,4.0,93,0.00,,SKC,0.00,VWS V14.01,2013-01-12 13:17:00,
2013-01-12 08:22:00,51.6,49.7,24.22,SW,232,1.0,1.0,93,0.00,,SKC,0.00,VWS V14.01,2013-01-12 13:22:00,
2013-01-12 08:27:00,51.5,49.5,24.24,South,182,3.0,3.0,93,0.00,,SKC,0.00,VWS V14.01,2013-01-12 13:27:00,
2013-01-12 08:32:00,51.5,49.5,24.22,South,186,1.0,1.0,93,0.00,,SKC,0.00,VWS V14.01,2013-01-12 13:32:00,
2013-01-12 08:37:00,51.4,49.5,24.25,SSW,206,1.0,3.0,93,0.00,,SKC,0.00,VWS V14.01,2013-01-12 13:37:00,
2013-01-12 08:42:00,51.4,49.5,24.25,SSW,201,3.0,3.0,93,0.00,,SKC,0.00,VWS V14.01,2013-01-12 13:42:00,
2013-01-12 08:47:00,51.5,49.5,24.24,SSW,199,4.0,6.0,93,0.00,,SKC,0.00,VWS V14.01,2013-01-12 13:47:00,
2013-01-12 08:52:00,51.7,49.8,24.23,SW,226,4.0,5.0,93,0.00,,SKC,0.00,VWS V14.01,2013-01-12 13:52:00,
2013-01-12 08:57:00,51.9,49.9,24.22,SSW,202,3.0,3.0,93,0.00,,SKC,0.00,VWS V14.01,2013-01-12 13:57:00,
2013-01-12 09:02:00,51.9,49.9,24.25,SSW,192,0.0,0.0,93,0.00,,SKC,0.00,VWS V14.01,2013-01-12 14:02:00,
2013-01-12 09:07:00,52.0,50.0,24.23,SSW,203,6.0,6.0,93,0.00,,SKC,0.00,VWS V14.01,2013-01-12 14:07:00,
2013-01-12 09:12:00,52.1,50.1,24.22,SSW,205,3.0,4.0,93,0.00,,SKC,0.00,VWS V14.01,2013-01-12 14:12:00,
2013-01-12 09:17:00,52.1,50.1,24.23,SW,226,7.0,9.0,93,0.00,,SKC,0.00,VWS V14.01,2013-01-12 14:17:00,
2013-01-12 09:22:00,52.2,50.2,24.24,SSW,199,5.0,6.0,93,0.00,,SKC,0.00,VWS V14.01,2013-01-12 14:22:00,
2013-01-12 09:27:00,52.3,50.3,24.24,South,176,7.0,7.0,93,0.00,,SKC,0.00,VWS V14.01,2013-01-12 14:27:00,
2013-01-12 09:32:00,52.5,50.5,24.22,SSE,150,6.0,6.0,93,0.00,,SKC,0.00,VWS V14.01,2013-01-12 14:32:00,
2013-01-12 09:37:00,52.6,50.9,24.24,SW,227,3.0,3.0,94,0.00,,SKC,0.00,VWS V14.01,2013-01-12 14:37:00,
2013-01-12 09:42:00,52.7,51.0,24.21,SW,220,5.0,7.0,94,0.00,,SKC,0.00,VWS V14.01,2013-01-12 14:42:00,
2013-01-12 09:47:00,52.7,51.0,24.22,SW,228,4.0,6.0,94,0.00,,SKC,0.00,VWS V14.01,2013-01-12 14:47:00,
2013-01-12 09:52:00,52.7,51.0,24.24,SSW,192,2.0,10.0,94,0.00,,SKC,0.00,VWS V14.01,2013-01-12 14:52:00,
2013-01-12 09:57:00,52.7,51.0,24.24,SW,215,4.0,10.0,94,0.00,,SKC,0.00,VWS V14.01,2013-01-12 14:57:00,
2013-01-12 10:02:00,52.7,51.0,24.24,SW,229,1.0,10.0,94,0.00,,SKC,0.00,VWS V14.01,2013-01-12 15:02:00,
2013-01-12 10:07:00,52.7,51.0,24.23,South,188,2.0,11.0,94,0.00,,SKC,0.00,VWS V14.01,2013-01-12 15:07:00,
2013-01-12 10:12:00,52.8,51.1,24.24,West,261,2.0,10.0,94,0.00,,SKC,0.00,VWS V14.01,2013-01-12 15:12:00,
2013-01-12 10:17:00,52.9,51.2,24.23,SW,214,3.0,5.0,94,0.00,,SKC,0.00,VWS V14.01,2013-01-12 15:17:00,
2013-01-12 10:22:00,52.9,51.2,24.24,SW,232,11.0,11.0,94,0.00,,SKC,0.00,VWS V14.01,2013-01-12 15:22:00,
2013-01-12 10:27:00,53.0,51.3,24.24,SSW,200,6.0,11.0,94,0.00,,SKC,0.00,VWS V14.01,2013-01-12 15:27:00,
2013-01-12 10:32:00,53.1,51.4,24.23,SSW,193,4.0,11.0,94,0.00,,SKC,0.00,VWS V14.01,2013-01-12 15:32:00,
2013-01-12 10:37:00,53.2,51.5,24.23,SSW,213,10.0,12.0,94,0.00,,SKC,0.00,VWS V14.01,2013-01-12 15:37:00,
2013-01-12 10:42:00,53.4,51.7,24.23,SW,229,6.0,11.0,94,0.00,,SKC,0.00,VWS V14.01,2013-01-12 15:42:00,
2013-01-12 10:47:00,53.5,51.8,24.31,SSW,202,5.0,10.0,94,0.00,,SKC,0.00,VWS V14.01,2013-01-12 15:47:00,
2013-01-12 10:52:00,53.6,51.9,24.23,South,176,0.0,13.0,94,0.00,,SKC,0.00,VWS V14.01,2013-01-12 15:52:00,
2013-01-12 10:57:00,53.7,52.0,24.23,South,190,7.0,9.0,94,0.00,,SKC,0.00,VWS V14.01,2013-01-12 15:57:00,
2013-01-12 11:02:00,53.9,52.2,24.24,South,183,4.0,8.0,94,0.00,,SKC,0.00,VWS V14.01,2013-01-12 16:02:00,
2013-01-12 11:07:00,54.2,52.5,24.23,SW,229,12.0,12.0,94,0.00,,SKC,0.00,VWS V14.01,2013-01-12 16:07:00,
2013-01-12 11:12:00,54.5,52.5,24.23,SSW,202,4.0,11.0,93,0.00,,SKC,0.00,VWS V14.01,2013-01-12 16:12:00,
2013-01-12 11:17:00,54.9,52.9,24.23,SSW,196,3.0,11.0,93,0.00,,SKC,0.00,VWS V14.01,2013-01-12 16:17:00,
2013-01-12 11:22:00,55.3,53.0,24.24,WSW,237,6.0,14.0,92,0.00,,SKC,0.00,VWS V14.01,2013-01-12 16:22:00,
2013-01-12 11:27:00,55.6,53.3,24.25,SSW,195,4.0,11.0,92,0.00,,SKC,0.00,VWS V14.01,2013-01-12 16:27:00,
2013-01-12 11:32:00,56.0,53.4,24.20,West,271,4.0,7.0,91,0.00,,SKC,0.00,VWS V14.01,2013-01-12 16:32:00,
2013-01-12 11:37:00,56.2,53.3,24.24,SW,223,6.0,9.0,90,0.00,,SKC,0.00,VWS V14.01,2013-01-12 16:37:00,
2013-01-12 11:42:00,56.3,53.4,24.23,SW,225,5.0,8.0,90,0.00,,SKC,0.00,VWS V14.01,2013-01-12 16:42:00,
2013-01-12 11:47:00,56.3,53.4,24.23,SW,225,2.0,10.0,90,0.00,,SKC,0.00,VWS V14.01,2013-01-12 16:47:00,
2013-01-12 11:52:00,56.4,53.5,24.26,SW,214,3.0,9.0,90,0.00,,SKC,0.00,VWS V14.01,2013-01-12 16:52:00,
2013-01-12 11:57:00,56.4,53.5,24.24,SSW,205,3.0,13.0,90,0.00,,SKC,0.00,VWS V14.01,2013-01-12 16:57:00,
2013-01-12 12:02:00,56.6,53.4,24.23,West,281,4.0,7.0,89,0.00,,SKC,0.00,VWS V14.01,2013-01-12 17:02:00,
2013-01-12 12:07:00,56.9,53.7,24.21,WSW,244,0.0,7.0,89,0.00,,SKC,0.00,VWS V14.01,2013-01-12 17:07:00,
2013-01-12 12:12:00,57.3,53.8,24.27,SW,236,4.0,9.0,88,0.00,,SKC,0.00,VWS V14.01,2013-01-12 17:12:00,
2013-01-12 12:17:00,57.5,53.7,24.27,SSW,199,1.0,10.0,87,0.00,,SKC,0.00,VWS V14.01,2013-01-12 17:17:00,
2013-01-12 12:22:00,57.6,53.8,24.26,WSW,246,4.0,7.0,87,0.00,,SKC,0.00,VWS V14.01,2013-01-12 17:22:00,
2013-01-12 12:27:00,57.7,53.9,24.27,WSW,249,9.0,9.0,87,0.00,,SKC,0.00,VWS V14.01,2013-01-12 17:27:00,
2013-01-12 12:32:00,57.7,53.9,24.24,SSW,205,1.0,11.0,87,0.00,,SKC,0.00,VWS V14.01,2013-01-12 17:32:00,
2013-01-12 12:37:00,58.0,53.8,24.25,WSW,246,2.0,9.0,86,0.00,,SKC,0.00,VWS V14.01,2013-01-12 17:37:00,
2013-01-12 12:42:00,58.0,53.8,24.21,SW,218,4.0,7.0,86,0.00,,SKC,0.00,VWS V14.01,2013-01-12 17:42:00,
2013-01-12 12:47:00,58.1,53.9,24.19,SW,225,2.0,6.0,86,0.00,,SKC,0.00,VWS V14.01,2013-01-12 17:47:00,
2013-01-12 12:52:00,58.2,54.0,24.19,SSW,202,3.0,11.0,86,0.00,,SKC,0.00,VWS V14.01,2013-01-12 17:52:00,
2013-01-12 12:57:00,58.4,54.2,24.19,SSW,211,3.0,10.0,86,0.00,,SKC,0.00,VWS V14.01,2013-01-12 17:57:00,
2013-01-12 13:02:00,58.5,54.0,24.19,SW,223,9.0,13.0,85,0.00,,SKC,0.00,VWS V14.01,2013-01-12 18:02:00,
2013-01-12 13:07:00,58.5,54.0,24.19,SW,218,0.0,10.0,85,0.00,,SKC,0.00,VWS V14.01,2013-01-12 18:07:00,
2013-01-12 13:12:00,58.7,54.2,24.19,WSW,242,4.0,11.0,85,0.00,,SKC,0.00,VWS V14.01,2013-01-12 18:12:00,
2013-01-12 13:17:00,59.2,54.7,24.19,South,190,3.0,6.0,85,0.00,,SKC,0.00,VWS V14.01,2013-01-12 18:17:00,
2013-01-12 13:22:00,59.7,54.5,24.19,SW,229,4.0,10.0,83,0.00,,SKC,0.00,VWS V14.01,2013-01-12 18:22:00,
2013-01-12 13:27:00,59.8,54.3,24.19,SW,223,1.0,10.0,82,0.00,,SKC,0.00,VWS V14.01,2013-01-12 18:27:00,
2013-01-12 13:32:00,60.1,54.3,24.19,South,186,2.0,6.0,81,0.00,,SKC,0.00,VWS V14.01,2013-01-12 18:32:00,
2013-01-12 13:37:00,60.4,54.2,24.19,SW,229,6.0,7.0,80,0.00,,SKC,0.00,VWS V14.01,2013-01-12 18:37:00,
2013-01-12 13:42:00,60.4,54.2,24.19,SSW,192,0.0,7.0,80,0.00,,SKC,0.00,VWS V14.01,2013-01-12 18:42:00,
2013-01-12 13:47:00,60.6,54.1,24.19,WSW,252,0.0,6.0,79,0.00,,SKC,0.00,VWS V14.01,2013-01-12 18:47:00,
2013-01-12 13:52:00,60.7,53.5,24.19,SW,227,3.0,10.0,77,0.00,,SKC,0.00,VWS V14.01,2013-01-12 18:52:00,
2013-01-12 13:57:00,60.6,53.7,24.19,SSW,192,3.0,5.0,78,0.00,,SKC,0.00,VWS V14.01,2013-01-12 18:57:00,
2013-01-12 14:02:00,60.5,53.6,24.19,SW,224,0.0,5.0,78,0.00,,SKC,0.00,VWS V14.01,2013-01-12 19:02:00,
2013-01-12 14:07:00,60.4,53.5,24.19,SW,234,0.0,7.0,78,0.00,,SKC,0.00,VWS V14.01,2013-01-12 19:07:00,
2013-01-12 14:12:00,60.5,53.6,24.19,WSW,253,1.0,7.0,78,0.00,,SKC,0.00,VWS V14.01,2013-01-12 19:12:00,
2013-01-12 14:17:00,60.6,53.7,24.19,West,271,2.0,5.0,78,0.00,,SKC,0.00,VWS V14.01,2013-01-12 19:17:00,
2013-01-12 14:22:00,60.7,53.8,24.19,SW,217,0.0,7.0,78,0.00,,SKC,0.00,VWS V14.01,2013-01-12 19:22:00,
2013-01-12 14:27:00,61.0,53.8,24.19,South,187,0.0,6.0,77,0.00,,SKC,0.00,VWS V14.01,2013-01-12 19:27:00,
2013-01-12 14:32:00,60.9,53.7,24.19,WSW,255,3.0,5.0,77,0.00,,SKC,0.00,VWS V14.01,2013-01-12 19:32:00,
2013-01-12 14:37:00,60.7,53.8,24.19,WSW,256,0.0,4.0,78,0.00,,SKC,0.00,VWS V14.01,2013-01-12 19:37:00,
2013-01-12 14:42:00,60.6,53.4,24.19,SW,235,4.0,5.0,77,0.00,,SKC,0.00,VWS V14.01,2013-01-12 19:42:00,
2013-01-12 14:47:00,61.0,54.1,24.19,SW,233,0.0,3.0,78,0.00,,SKC,0.00,VWS V14.01,2013-01-12 19:47:00,
2013-01-12 14:52:00,61.6,54.3,24.19,WSW,238,0.0,4.0,77,0.00,,SKC,0.00,VWS V14.01,2013-01-12 19:52:00,
2013-01-12 14:57:00,61.6,54.0,24.19,SSW,192,0.0,6.0,76,0.00,,SKC,0.00,VWS V14.01,2013-01-12 19:57:00,
2013-01-12 15:04:00,62.0,54.4,24.19,South,175,3.0,3.0,76,0.00,,SKC,0.00,VWS V14.01,2013-01-12 20:04:00,
2013-01-12 15:09:00,61.6,54.3,24.19,South,182,5.0,6.0,77,0.00,,SKC,0.00,VWS V14.01,2013-01-12 20:09:00,
2013-01-12 15:14:00,61.2,53.9,24.19,South,182,0.0,4.0,77,0.00,,SKC,0.00,VWS V14.01,2013-01-12 20:14:00,
2013-01-12 15:19:00,61.0,54.1,24.19,SW,215,0.0,5.0,78,0.00,,SKC,0.00,VWS V14.01,2013-01-12 20:19:00,
2013-01-12 15:24:00,60.9,54.0,24.19,SSW,199,0.0,2.0,78,0.00,,SKC,0.00,VWS V14.01,2013-01-12 20:24:00,
2013-01-12 15:29:00,60.9,54.3,24.19,SSW,196,5.0,6.0,79,0.00,,SKC,0.00,VWS V14.01,2013-01-12 20:29:00,
2013-01-12 15:34:00,60.8,54.3,24.19,SSW,195,3.0,4.0,79,0.00,,SKC,0.00,VWS V14.01,2013-01-12 20:34:00,
2013-01-12 15:39:00,60.8,54.3,24.19,SSE,163,0.0,2.0,79,0.00,,SKC,0.00,VWS V14.01,2013-01-12 20:39:00,
2013-01-12 15:44:00,61.0,54.5,24.19,SSE,164,0.0,2.0,79,0.00,,SKC,0.00,VWS V14.01,2013-01-12 20:44:00,
2013-01-12 15:49:00,61.2,54.3,24.19,South,191,3.0,6.0,78,0.00,,SKC,0.00,VWS V14.01,2013-01-12 20:49:00,
2013-01-12 15:54:00,61.1,53.8,24.19,SSW,199,3.0,7.0,77,0.00,,SKC,0.00,VWS V14.01,2013-01-12 20:54:00,
2013-01-12 15:59:00,60.8,53.9,24.19,SSW,202,0.0,5.0,78,0.00,,SKC,0.00,VWS V14.01,2013-01-12 20:59:00,
2013-01-12 16:04:00,60.7,54.2,24.19,South,171,3.0,4.0,79,0.00,,SKC,0.00,VWS V14.01,2013-01-12 21:04:00,
2013-01-12 16:09:00,60.5,54.0,24.19,South,172,3.0,3.0,79,0.00,,SKC,0.00,VWS V14.01,2013-01-12 21:09:00,
2013-01-12 16:14:00,60.5,54.0,24.19,South,171,0.0,4.0,79,0.00,,SKC,0.00,VWS V14.01,2013-01-12 21:14:00,
2013-01-12 16:19:00,60.4,54.2,24.19,SSE,163,2.0,4.0,80,0.00,,SKC,0.00,VWS V14.01,2013-01-12 21:19:00,
2013-01-12 16:24:00,60.4,54.2,24.19,SSE,163,1.0,3.0,80,0.00,,SKC,0.00,VWS V14.01,2013-01-12 21:24:00,
2013-01-12 16:29:00,60.3,54.1,24.19,SE,141,5.0,5.0,80,0.00,,SKC,0.00,VWS V14.01,2013-01-12 21:29:00,
2013-01-12 16:34:00,60.2,54.0,24.19,SE,146,0.0,2.0,80,0.00,,SKC,0.00,VWS V14.01,2013-01-12 21:34:00,
2013-01-12 16:39:00,60.1,53.9,24.19,SSE,147,3.0,3.0,80,0.00,,SKC,0.00,VWS V14.01,2013-01-12 21:39:00,
2013-01-12 16:44:00,60.0,53.8,24.19,SSE,147,1.0,3.0,80,0.00,,SKC,0.00,VWS V14.01,2013-01-12 21:44:00,
2013-01-12 16:49:00,59.8,54.0,24.19,SE,145,3.0,3.0,81,0.00,,SKC,0.00,VWS V14.01,2013-01-12 21:49:00,
2013-01-12 16:54:00,59.7,53.9,24.19,SE,145,0.0,4.0,81,0.00,,SKC,0.00,VWS V14.01,2013-01-12 21:54:00,
2013-01-12 16:59:00,59.6,53.8,24.19,SE,145,0.0,2.0,81,0.00,,SKC,0.00,VWS V14.01,2013-01-12 21:59:00,
2013-01-12 17:04:00,59.6,53.8,24.19,SE,146,0.0,1.0,81,0.00,,SKC,0.00,VWS V14.01,2013-01-12 22:04:00,
2013-01-12 17:09:00,59.5,54.0,24.19,SE,145,0.0,1.0,82,0.00,,SKC,0.00,VWS V14.01,2013-01-12 22:09:00,
2013-01-12 17:14:00,59.4,53.9,24.19,SE,146,0.0,2.0,82,0.00,,SKC,0.00,VWS V14.01,2013-01-12 22:14:00,
2013-01-12 17:19:00,59.3,53.8,24.19,SE,145,0.0,0.0,82,0.00,,SKC,0.00,VWS V14.01,2013-01-12 22:19:00,
2013-01-12 17:24:00,59.1,53.6,24.19,SE,145,2.0,2.0,82,0.00,,SKC,0.00,VWS V14.01,2013-01-12 22:24:00,
2013-01-12 17:29:00,59.0,53.5,24.19,SE,146,0.0,1.0,82,0.00,,SKC,0.00,VWS V14.01,2013-01-12 22:29:00,
2013-01-12 17:34:00,58.8,53.7,24.19,SE,146,0.0,0.0,83,0.00,,SKC,0.00,VWS V14.01,2013-01-12 22:34:00,
2013-01-12 17:39:00,58.6,53.5,24.19,SE,145,0.0,0.0,83,0.00,,SKC,0.00,VWS V14.01,2013-01-12 22:39:00,
2013-01-12 17:44:00,58.3,53.5,24.19,SE,146,0.0,1.0,84,0.00,,SKC,0.00,VWS V14.01,2013-01-12 22:44:00,
2013-01-12 17:49:00,58.1,53.3,24.19,SE,145,0.0,0.0,84,0.00,,SKC,0.00,VWS V14.01,2013-01-12 22:49:00,
2013-01-12 17:54:00,57.9,53.1,24.19,SE,145,0.0,0.0,84,0.00,,SKC,0.00,VWS V14.01,2013-01-12 22:54:00,
2013-01-12 17:59:00,57.7,53.2,24.19,SE,145,0.0,0.0,85,0.00,,SKC,0.00,VWS V14.01,2013-01-12 22:59:00,
2013-01-12 18:04:00,57.5,53.0,24.19,SE,145,0.0,0.0,85,0.00,,SKC,0.00,VWS V14.01,2013-01-12 23:04:00,
2013-01-12 18:09:00,57.3,52.8,24.19,SE,145,0.0,0.0,85,0.00,,SKC,0.00,VWS V14.01,2013-01-12 23:09:00,
2013-01-12 18:14:00,57.2,53.1,24.19,SE,145,0.0,0.0,86,0.00,,SKC,0.00,VWS V14.01,2013-01-12 23:14:00,
2013-01-12 18:19:00,57.1,53.0,24.19,SE,145,0.0,1.0,86,0.00,,SKC,0.00,VWS V14.01,2013-01-12 23:19:00,
2013-01-12 18:24:00,57.1,53.0,24.19,SE,145,0.0,1.0,86,0.00,,SKC,0.00,VWS V14.01,2013-01-12 23:24:00,
2013-01-12 18:29:00,57.1,53.3,24.19,SE,145,0.0,0.0,87,0.00,,SKC,0.00,VWS V14.01,2013-01-12 23:29:00,
2013-01-12 18:34:00,57.1,53.3,24.19,SE,145,0.0,0.0,87,0.00,,SKC,0.00,VWS V14.01,2013-01-12 23:34:00,
2013-01-12 18:39:00,57.1,53.3,24.19,SE,145,1.0,2.0,87,0.00,,SKC,0.00,VWS V14.01,2013-01-12 23:39:00,
2013-01-12 18:44:00,57.1,53.3,24.19,SE,145,0.0,2.0,87,0.00,,SKC,0.00,VWS V14.01,2013-01-12 23:44:00,
2013-01-12 18:49:00,57.1,53.3,24.19,SE,145,0.0,2.0,87,0.00,,SKC,0.00,VWS V14.01,2013-01-12 23:49:00,
2013-01-12 18:54:00,57.1,53.3,24.19,SE,144,0.0,0.0,87,0.00,,SKC,0.00,VWS V14.01,2013-01-12 23:54:00,
2013-01-12 18:59:00,57.0,53.5,24.21,SE,143,0.0,3.0,88,0.01,,SKC,0.01,VWS V14.01,2013-01-12 23:59:00,
2013-01-12 19:04:00,56.9,53.7,24.19,SE,142,1.0,2.0,89,0.03,,SKC,0.03,VWS V14.01,2013-01-13 00:04:00,
2013-01-12 19:09:00,56.6,53.7,24.19,SE,142,0.0,0.0,90,0.06,,SKC,0.06,VWS V14.01,2013-01-13 00:09:00,
2013-01-12 19:14:00,56.4,53.8,24.19,SE,142,0.0,0.0,91,0.07,,SKC,0.07,VWS V14.01,2013-01-13 00:14:00,
2013-01-12 19:19:00,56.2,53.6,24.19,SE,139,0.0,0.0,91,0.08,,SKC,0.08,VWS V14.01,2013-01-13 00:19:00,
2013-01-12 19:24:00,56.1,53.8,24.18,SE,138,0.0,0.0,92,0.09,,SKC,0.09,VWS V14.01,2013-01-13 00:24:00,
2013-01-12 19:29:00,56.0,53.7,24.20,SE,138,0.0,2.0,92,0.18,,SKC,0.18,VWS V14.01,2013-01-13 00:29:00,
2013-01-12 19:34:00,55.9,53.9,24.19,SE,139,0.0,0.0,93,0.19,,SKC,0.19,VWS V14.01,2013-01-13 00:34:00,
2013-01-12 19:39:00,55.8,53.8,24.18,SE,138,0.0,0.0,93,0.19,,SKC,0.19,VWS V14.01,2013-01-13 00:39:00,
2013-01-12 19:44:00,55.8,53.8,24.20,SE,139,0.0,0.0,93,0.19,,SKC,0.19,VWS V14.01,2013-01-13 00:44:00,
2013-01-12 19:49:00,55.7,53.7,24.18,SE,138,0.0,0.0,93,0.20,,SKC,0.20,VWS V14.01,2013-01-13 00:49:00,
2013-01-12 19:54:00,55.6,53.6,24.18,SE,139,0.0,0.0,93,0.21,,SKC,0.21,VWS V14.01,2013-01-13 00:54:00,
2013-01-12 19:59:00,55.5,53.5,24.19,SE,139,0.0,0.0,93,0.23,,SKC,0.23,VWS V14.01,2013-01-13 00:59:00,
2013-01-12 20:04:00,55.5,53.8,24.17,SE,139,0.0,0.0,94,0.21,,SKC,0.23,VWS V14.01,2013-01-13 01:04:00,
2013-01-12 20:09:00,55.5,53.8,24.18,SE,138,0.0,0.0,94,0.19,,SKC,0.24,VWS V14.01,2013-01-13 01:09:00,
2013-01-12 20:14:00,55.4,53.7,24.15,SE,139,0.0,0.0,94,0.18,,SKC,0.25,VWS V14.01,2013-01-13 01:14:00,
2013-01-12 20:19:00,55.3,53.6,24.13,SE,139,0.0,0.0,94,0.19,,SKC,0.27,VWS V14.01,2013-01-13 01:19:00,
2013-01-12 20:24:00,55.3,53.6,24.14,SE,139,0.0,0.0,94,0.20,,SKC,0.29,VWS V14.01,2013-01-13 01:24:00,
2013-01-12 20:29:00,55.3,53.6,24.13,SE,139,0.0,0.0,94,0.17,,SKC,0.33,VWS V14.01,2013-01-13 01:29:00,
2013-01-12 20:34:00,55.3,53.6,24.13,SE,139,0.0,0.0,94,0.17,,SKC,0.35,VWS V14.01,2013-01-13 01:34:00,
2013-01-12 20:39:00,55.4,53.7,24.15,SE,138,0.0,2.0,94,0.19,,SKC,0.38,VWS V14.01,2013-01-13 01:39:00,
2013-01-12 20:44:00,55.4,53.7,24.17,SE,138,0.0,0.0,94,0.22,,SKC,0.41,VWS V14.01,2013-01-13 01:44:00,
2013-01-12 20:49:00,55.5,54.1,24.16,SE,138,1.0,2.0,95,0.23,,SKC,0.43,VWS V14.01,2013-01-13 01:49:00,
2013-01-12 20:54:00,55.4,54.0,24.17,SE,138,0.0,0.0,95,0.26,,SKC,0.47,VWS V14.01,2013-01-13 01:54:00,
2013-01-12 20:59:00,55.4,54.0,24.16,SE,137,0.0,2.0,95,0.29,,SKC,0.51,VWS V14.01,2013-01-13 01:59:00,
2013-01-12 21:04:00,55.5,54.1,24.15,SE,137,0.0,1.0,95,0.38,,SKC,0.61,VWS V14.01,2013-01-13 02:04:00,
2013-01-12 21:09:00,55.6,54.2,24.12,SE,135,0.0,1.0,95,0.41,,SKC,0.65,VWS V14.01,2013-01-13 02:09:00,
2013-01-12 21:14:00,55.6,54.2,24.14,SE,135,0.0,0.0,95,0.46,,SKC,0.71,VWS V14.01,2013-01-13 02:14:00,
2013-01-12 21:19:00,55.6,54.2,24.19,SE,134,0.0,0.0,95,0.47,,SKC,0.74,VWS V14.01,2013-01-13 02:19:00,
2013-01-12 21:24:00,55.6,54.2,24.19,SE,135,0.0,0.0,95,0.49,,SKC,0.78,VWS V14.01,2013-01-13 02:24:00,
2013-01-12 21:29:00,55.5,54.1,24.15,SE,133,2.0,3.0,95,0.50,,SKC,0.81,VWS V14.01,2013-01-13 02:29:00,
2013-01-12 21:34:00,55.5,54.1,24.20,SE,133,0.0,2.0,95,0.49,,SKC,0.83,VWS V14.01,2013-01-13 02:34:00,
2013-01-12 21:39:00,55.4,54.0,24.18,NNE,18,2.0,5.0,95,0.52,,SKC,0.89,VWS V14.01,2013-01-13 02:39:00,
2013-01-12 21:44:00,55.4,54.0,24.20,NE,53,0.0,3.0,95,0.52,,SKC,0.92,VWS V14.01,2013-01-13 02:44:00,
2013-01-12 21:49:00,55.4,54.0,24.14,NE,51,0.0,0.0,95,0.53,,SKC,0.96,VWS V14.01,2013-01-13 02:49:00,
2013-01-12 21:54:00,55.5,54.1,24.16,NE,41,4.0,6.0,95,0.66,,SKC,1.12,VWS V14.01,2013-01-13 02:54:00,
2013-01-12 21:59:00,55.7,54.3,24.17,NNE,33,0.0,4.0,95,0.89,,SKC,1.38,VWS V14.01,2013-01-13 02:59:00,
2013-01-12 22:04:00,55.7,54.3,24.16,NNE,21,2.0,4.0,95,0.88,,SKC,1.44,VWS V14.01,2013-01-13 03:04:00,
2013-01-12 22:09:00,55.7,54.3,24.18,NE,44,1.0,3.0,95,0.82,,SKC,1.46,VWS V14.01,2013-01-13 03:09:00,
2013-01-12 22:14:00,55.8,54.4,24.20,NE,55,0.0,4.0,95,0.78,,SKC,1.47,VWS V14.01,2013-01-13 03:14:00,
2013-01-12 22:19:00,55.9,54.8,24.23,NE,55,1.0,3.0,96,0.79,,SKC,1.52,VWS V14.01,2013-01-13 03:19:00,
2013-01-12 22:24:00,56.0,54.9,24.19,SE,145,0.0,3.0,96,0.80,,SKC,1.56,VWS V14.01,2013-01-13 03:24:00,
2013-01-12 22:29:00,56.2,55.1,24.24,SE,125,3.0,3.0,96,0.77,,SKC,1.57,VWS V14.01,2013-01-13 03:29:00,
2013-01-12 22:34:00,56.4,55.3,24.22,ENE,59,3.0,5.0,96,0.75,,SKC,1.57,VWS V14.01,2013-01-13 03:34:00,
2013-01-12 22:39:00,56.5,55.4,24.21,NE,55,0.0,3.0,96,0.70,,SKC,1.57,VWS V14.01,2013-01-13 03:39:00,
2013-01-12 22:44:00,56.5,55.4,24.22,NE,55,0.0,2.0,96,0.67,,SKC,1.58,VWS V14.01,2013-01-13 03:44:00,
2013-01-12 22:49:00,56.5,55.4,24.24,NE,55,1.0,1.0,96,0.63,,SKC,1.58,VWS V14.01,2013-01-13 03:49:00,
2013-01-12 22:54:00,56.5,55.4,24.24,NE,55,1.0,2.0,96,0.56,,SKC,1.59,VWS V14.01,2013-01-13 03:54:00,
2013-01-12 22:59:00,56.6,55.5,24.18,NE,55,0.0,2.0,96,0.26,,SKC,1.60,VWS V14.01,2013-01-13 03:59:00,
2013-01-12 23:04:00,56.7,55.6,24.18,ENE,63,2.0,4.0,96,0.17,,SKC,1.60,VWS V14.01,2013-01-13 04:04:00,
2013-01-12 23:09:00,56.9,55.8,24.17,ESE,113,0.0,0.0,96,0.15,,SKC,1.61,VWS V14.01,2013-01-13 04:09:00,
2013-01-12 23:14:00,57.1,56.0,24.17,ESE,114,3.0,3.0,96,0.15,,SKC,1.61,VWS V14.01,2013-01-13 04:14:00,
2013-01-12 23:19:00,57.3,56.2,24.15,ESE,116,0.0,3.0,96,0.13,,SKC,1.62,VWS V14.01,2013-01-13 04:19:00,
2013-01-12 23:24:00,57.9,56.8,24.19,South,180,5.0,6.0,96,0.08,,SKC,1.62,VWS V14.01,2013-01-13 04:24:00,
2013-01-12 23:29:00,58.6,57.5,24.22,SSE,166,5.0,7.0,96,0.06,,SKC,1.62,VWS V14.01,2013-01-13 04:29:00,
2013-01-12 23:34:00,59.5,58.4,24.24,South,188,6.0,7.0,96,0.05,,SKC,1.62,VWS V14.01,2013-01-13 04:34:00,
2013-01-12 23:39:00,60.1,59.0,24.22,SSW,213,4.0,12.0,96,0.05,,SKC,1.62,VWS V14.01,2013-01-13 04:39:00,
2013-01-12 23:44:00,60.8,59.7,24.24,SSW,199,4.0,16.0,96,0.05,,SKC,1.63,VWS V14.01,2013-01-13 04:44:00,
2013-01-12 23:49:00,61.3,60.2,24.24,SSW,192,8.0,12.0,96,0.05,,SKC,1.63,VWS V14.01,2013-01-13 04:49:00,
2013-01-12 23:54:00,61.8,60.7,24.24,SSW,194,14.0,17.0,96,0.04,,SKC,1.63,VWS V14.01,2013-01-13 04:54:00,
2013-01-12 23:59:00,62.4,61.2,24.24,SSW,212,10.0,21.0,96,0.03,,SKC,1.63,VWS V14.01,2013-01-13 04:59:00,